sensor_id;sensor_type;location;lat;lon;timestamp;pressure;altitude;pressure_sealevel;temperature;humidity
16255;BME280;8235;52.198;9.904;2022-09-09T00:00:18;100163.91;;;15.28;85.07
16255;BME280;8235;52.198;9.904;2022-09-09T00:02:50;100154.16;;;15.27;85.21
16255;BME280;8235;52.198;9.904;2022-09-09T00:05:26;100161.22;;;15.28;85.02
16255;BME280;8235;52.198;9.904;2022-09-09T00:07:58;100155.00;;;15.27;84.89
16255;BME280;8235;52.198;9.904;2022-09-09T00:10:28;100160.53;;;15.26;85.02
16255;BME280;8235;52.198;9.904;2022-09-09T00:13:01;100159.66;;;15.25;84.87
16255;BME280;8235;52.198;9.904;2022-09-09T00:15:36;100166.03;;;15.24;85.07
16255;BME280;8235;52.198;9.904;2022-09-09T00:18:13;100152.59;;;15.24;85.39
16255;BME280;8235;52.198;9.904;2022-09-09T00:20:46;100161.63;;;15.23;85.65
16255;BME280;8235;52.198;9.904;2022-09-09T00:23:20;100159.97;;;15.22;85.57
16255;BME280;8235;52.198;9.904;2022-09-09T00:25:55;100154.75;;;15.21;85.33
16255;BME280;8235;52.198;9.904;2022-09-09T00:28:27;100160.25;;;15.19;85.76
16255;BME280;8235;52.198;9.904;2022-09-09T00:31:00;100163.19;;;15.16;85.50
16255;BME280;8235;52.198;9.904;2022-09-09T00:33:30;100160.06;;;15.11;85.65
16255;BME280;8235;52.198;9.904;2022-09-09T00:35:58;100156.94;;;15.06;85.75
16255;BME280;8235;52.198;9.904;2022-09-09T00:38:33;100155.56;;;15.02;86.20
16255;BME280;8235;52.198;9.904;2022-09-09T00:41:07;100146.94;;;14.99;86.07
16255;BME280;8235;52.198;9.904;2022-09-09T00:43:38;100150.84;;;14.94;86.18
16255;BME280;8235;52.198;9.904;2022-09-09T00:46:18;100151.25;;;14.90;86.38
16255;BME280;8235;52.198;9.904;2022-09-09T00:48:54;100148.84;;;14.87;86.36
16255;BME280;8235;52.198;9.904;2022-09-09T00:51:34;100153.53;;;14.85;86.62
16255;BME280;8235;52.198;9.904;2022-09-09T00:54:22;100159.16;;;14.82;86.91
16255;BME280;8235;52.198;9.904;2022-09-09T00:57:04;100159.41;;;14.79;87.22
16255;BME280;8235;52.198;9.904;2022-09-09T00:59:42;100150.81;;;14.75;87.11
16255;BME280;8235;52.198;9.904;2022-09-09T01:02:21;100154.59;;;14.73;87.17
16255;BME280;8235;52.198;9.904;2022-09-09T01:04:51;100153.19;;;14.69;87.53
16255;BME280;8235;52.198;9.904;2022-09-09T01:07:20;100158.81;;;14.66;87.31
16255;BME280;8235;52.198;9.904;2022-09-09T01:09:56;100152.88;;;14.62;87.49
16255;BME280;8235;52.198;9.904;2022-09-09T01:12:32;100154.84;;;14.60;87.60
16255;BME280;8235;52.198;9.904;2022-09-09T01:15:07;100158.50;;;14.59;88.01
16255;BME280;8235;52.198;9.904;2022-09-09T01:17:52;100163.13;;;14.57;87.85
16255;BME280;8235;52.198;9.904;2022-09-09T01:20:23;100167.66;;;14.56;88.34
16255;BME280;8235;52.198;9.904;2022-09-09T01:23:00;100158.91;;;14.54;88.02
16255;BME280;8235;52.198;9.904;2022-09-09T01:26:04;100153.66;;;14.53;88.20
16255;BME280;8235;52.198;9.904;2022-09-09T01:28:39;100146.59;;;14.52;88.70
16255;BME280;8235;52.198;9.904;2022-09-09T01:31:09;100144.09;;;14.50;88.83
16255;BME280;8235;52.198;9.904;2022-09-09T01:33:37;100144.09;;;14.50;88.73
16255;BME280;8235;52.198;9.904;2022-09-09T01:36:08;100147.75;;;14.49;88.89
16255;BME280;8235;52.198;9.904;2022-09-09T01:38:36;100143.63;;;14.45;88.53
16255;BME280;8235;52.198;9.904;2022-09-09T01:41:04;100144.75;;;14.43;88.47
16255;BME280;8235;52.198;9.904;2022-09-09T01:43:31;100136.09;;;14.39;88.79
16255;BME280;8235;52.198;9.904;2022-09-09T01:45:59;100147.06;;;14.36;88.55
16255;BME280;8235;52.198;9.904;2022-09-09T01:48:27;100150.16;;;14.32;88.18
16255;BME280;8235;52.198;9.904;2022-09-09T01:50:53;100146.91;;;14.28;88.24
16255;BME280;8235;52.198;9.904;2022-09-09T01:53:21;100148.88;;;14.26;88.37
16255;BME280;8235;52.198;9.904;2022-09-09T01:55:55;100145.47;;;14.24;88.29
16255;BME280;8235;52.198;9.904;2022-09-09T01:58:34;100156.44;;;14.21;88.52
16255;BME280;8235;52.198;9.904;2022-09-09T02:01:11;100151.34;;;14.18;88.75
16255;BME280;8235;52.198;9.904;2022-09-09T02:03:47;100158.53;;;14.17;89.19
16255;BME280;8235;52.198;9.904;2022-09-09T02:06:25;100160.47;;;14.15;88.91
16255;BME280;8235;52.198;9.904;2022-09-09T02:08:55;100157.00;;;14.15;89.41
16255;BME280;8235;52.198;9.904;2022-09-09T02:11:25;100157.97;;;14.14;89.89
16255;BME280;8235;52.198;9.904;2022-09-09T02:13:57;100156.13;;;14.14;89.95
16255;BME280;8235;52.198;9.904;2022-09-09T02:16:29;100161.50;;;14.14;89.76
16255;BME280;8235;52.198;9.904;2022-09-09T02:19:01;100156.25;;;14.13;90.04
16255;BME280;8235;52.198;9.904;2022-09-09T02:21:31;100165.41;;;14.10;89.76
16255;BME280;8235;52.198;9.904;2022-09-09T02:24:02;100159.19;;;14.10;89.75
16255;BME280;8235;52.198;9.904;2022-09-09T02:26:31;100158.47;;;14.08;90.09
16255;BME280;8235;52.198;9.904;2022-09-09T02:29:02;100151.44;;;14.07;90.41
16255;BME280;8235;52.198;9.904;2022-09-09T02:31:31;100147.06;;;14.06;89.97
16255;BME280;8235;52.198;9.904;2022-09-09T02:34:01;100142.81;;;14.03;89.97
16255;BME280;8235;52.198;9.904;2022-09-09T02:36:31;100140.25;;;14.02;90.30
16255;BME280;8235;52.198;9.904;2022-09-09T02:38:59;100144.88;;;14.00;90.41
16255;BME280;8235;52.198;9.904;2022-09-09T02:41:32;100141.50;;;13.98;90.15
16255;BME280;8235;52.198;9.904;2022-09-09T02:43:58;100147.84;;;13.97;90.21
16255;BME280;8235;52.198;9.904;2022-09-09T02:46:37;100133.63;;;13.96;90.60
16255;BME280;8235;52.198;9.904;2022-09-09T02:49:14;100132.91;;;13.94;90.35
16255;BME280;8235;52.198;9.904;2022-09-09T02:51:50;100146.41;;;13.93;90.50
16255;BME280;8235;52.198;9.904;2022-09-09T02:54:24;100152.63;;;13.93;90.92
16255;BME280;8235;52.198;9.904;2022-09-09T02:56:53;100150.06;;;13.92;91.13
16255;BME280;8235;52.198;9.904;2022-09-09T02:59:21;100146.41;;;13.93;91.00
16255;BME280;8235;52.198;9.904;2022-09-09T03:01:50;100144.44;;;13.95;92.06
16255;BME280;8235;52.198;9.904;2022-09-09T03:04:18;100143.19;;;13.99;92.83
16255;BME280;8235;52.198;9.904;2022-09-09T03:06:45;100143.53;;;14.05;93.39
16255;BME280;8235;52.198;9.904;2022-09-09T03:09:11;100132.28;;;14.11;93.56
16255;BME280;8235;52.198;9.904;2022-09-09T03:11:38;100134.56;;;14.16;93.79
16255;BME280;8235;52.198;9.904;2022-09-09T03:14:04;100145.72;;;14.21;93.75
16255;BME280;8235;52.198;9.904;2022-09-09T03:16:31;100147.16;;;14.25;94.30
16255;BME280;8235;52.198;9.904;2022-09-09T03:19:01;100142.41;;;14.29;94.07
16255;BME280;8235;52.198;9.904;2022-09-09T03:21:27;100147.34;;;14.33;94.58
16255;BME280;8235;52.198;9.904;2022-09-09T03:23:54;100144.38;;;14.36;94.05
16255;BME280;8235;52.198;9.904;2022-09-09T03:26:20;100148.53;;;14.40;94.17
16255;BME280;8235;52.198;9.904;2022-09-09T03:28:48;100144.63;;;14.44;94.52
16255;BME280;8235;52.198;9.904;2022-09-09T03:31:17;100138.16;;;14.47;94.59
16255;BME280;8235;52.198;9.904;2022-09-09T03:33:44;100138.72;;;14.50;94.25
16255;BME280;8235;52.198;9.904;2022-09-09T03:36:12;100127.59;;;14.55;94.54
16255;BME280;8235;52.198;9.904;2022-09-09T03:38:38;100137.19;;;14.57;94.29
16255;BME280;8235;52.198;9.904;2022-09-09T03:41:05;100134.13;;;14.62;94.27
16255;BME280;8235;52.198;9.904;2022-09-09T03:43:33;100133.00;;;14.65;93.95
16255;BME280;8235;52.198;9.904;2022-09-09T03:46:00;100135.53;;;14.66;93.79
16255;BME280;8235;52.198;9.904;2022-09-09T03:48:27;100132.72;;;14.68;93.79
16255;BME280;8235;52.198;9.904;2022-09-09T03:50:54;100133.41;;;14.70;93.82
16255;BME280;8235;52.198;9.904;2022-09-09T03:53:24;100133.16;;;14.73;93.58
16255;BME280;8235;52.198;9.904;2022-09-09T03:55:52;100131.31;;;14.73;93.20
16255;BME280;8235;52.198;9.904;2022-09-09T03:58:21;100134.72;;;14.75;93.18
16255;BME280;8235;52.198;9.904;2022-09-09T04:00:59;100126.69;;;14.75;93.21
16255;BME280;8235;52.198;9.904;2022-09-09T04:03:27;100132.03;;;14.75;92.75
16255;BME280;8235;52.198;9.904;2022-09-09T04:05:54;100136.28;;;14.78;92.71
16255;BME280;8235;52.198;9.904;2022-09-09T04:08:23;100138.81;;;14.79;92.61
16255;BME280;8235;52.198;9.904;2022-09-09T04:10:51;100138.69;;;14.81;92.61
16255;BME280;8235;52.198;9.904;2022-09-09T04:13:18;100140.38;;;14.82;92.37
16255;BME280;8235;52.198;9.904;2022-09-09T04:15:50;100142.81;;;14.85;92.49
16255;BME280;8235;52.198;9.904;2022-09-09T04:18:17;100139.13;;;14.86;92.59
16255;BME280;8235;52.198;9.904;2022-09-09T04:20:46;100145.06;;;14.89;92.30
16255;BME280;8235;52.198;9.904;2022-09-09T04:23:12;100146.75;;;14.90;92.00
16255;BME280;8235;52.198;9.904;2022-09-09T04:25:44;100148.44;;;14.91;92.30
16255;BME280;8235;52.198;9.904;2022-09-09T04:28:11;100145.63;;;14.93;91.97
16255;BME280;8235;52.198;9.904;2022-09-09T04:30:38;100153.41;;;14.96;91.94
16255;BME280;8235;52.198;9.904;2022-09-09T04:33:05;100146.06;;;14.98;92.05
16255;BME280;8235;52.198;9.904;2022-09-09T04:35:31;100146.66;;;15.02;92.00
16255;BME280;8235;52.198;9.904;2022-09-09T04:37:58;100150.91;;;15.04;91.61
16255;BME280;8235;52.198;9.904;2022-09-09T04:40:24;100155.25;;;15.05;91.36
16255;BME280;8235;52.198;9.904;2022-09-09T04:42:52;100156.09;;;15.06;91.37
16255;BME280;8235;52.198;9.904;2022-09-09T04:45:18;100159.50;;;15.08;91.71
16255;BME280;8235;52.198;9.904;2022-09-09T04:47:45;100156.69;;;15.09;91.69
16255;BME280;8235;52.198;9.904;2022-09-09T04:50:11;100154.84;;;15.10;91.30
16255;BME280;8235;52.198;9.904;2022-09-09T04:52:38;100155.56;;;15.12;91.22
16255;BME280;8235;52.198;9.904;2022-09-09T04:55:05;100153.72;;;15.12;91.23
16255;BME280;8235;52.198;9.904;2022-09-09T04:57:32;100161.78;;;15.12;91.32
16255;BME280;8235;52.198;9.904;2022-09-09T05:00:00;100158.97;;;15.14;91.19
16255;BME280;8235;52.198;9.904;2022-09-09T05:02:27;100161.63;;;15.14;91.06
16255;BME280;8235;52.198;9.904;2022-09-09T05:04:55;100165.88;;;15.16;90.92
16255;BME280;8235;52.198;9.904;2022-09-09T05:07:22;100157.56;;;15.19;90.97
16255;BME280;8235;52.198;9.904;2022-09-09T05:09:48;100167.16;;;15.22;91.12
16255;BME280;8235;52.198;9.904;2022-09-09T05:12:15;100163.34;;;15.24;90.97
16255;BME280;8235;52.198;9.904;2022-09-09T05:14:42;100167.59;;;15.27;90.98
16255;BME280;8235;52.198;9.904;2022-09-09T05:17:10;100163.78;;;15.29;91.20
16255;BME280;8235;52.198;9.904;2022-09-09T05:19:38;100162.78;;;15.31;91.29
16255;BME280;8235;52.198;9.904;2022-09-09T05:22:04;100165.34;;;15.32;91.36
16255;BME280;8235;52.198;9.904;2022-09-09T05:24:31;100158.13;;;15.33;91.22
16255;BME280;8235;52.198;9.904;2022-09-09T05:26:58;100158.84;;;15.35;91.16
16255;BME280;8235;52.198;9.904;2022-09-09T05:29:26;100159.56;;;15.37;91.44
16255;BME280;8235;52.198;9.904;2022-09-09T05:31:52;100168.31;;;15.39;91.41
16255;BME280;8235;52.198;9.904;2022-09-09T05:34:20;100161.97;;;15.40;91.22
16255;BME280;8235;52.198;9.904;2022-09-09T05:36:47;100166.19;;;15.42;91.36
16255;BME280;8235;52.198;9.904;2022-09-09T05:39:14;100163.22;;;15.45;91.23
16255;BME280;8235;52.198;9.904;2022-09-09T05:41:40;100162.25;;;15.46;91.19
16255;BME280;8235;52.198;9.904;2022-09-09T05:44:06;100167.34;;;15.49;91.23
16255;BME280;8235;52.198;9.904;2022-09-09T05:46:33;100171.56;;;15.52;91.00
16255;BME280;8235;52.198;9.904;2022-09-09T05:48:59;100175.72;;;15.56;91.16
16255;BME280;8235;52.198;9.904;2022-09-09T05:51:28;100170.88;;;15.59;91.00
16255;BME280;8235;52.198;9.904;2022-09-09T05:53:55;100173.44;;;15.61;91.05
16255;BME280;8235;52.198;9.904;2022-09-09T05:56:25;100172.03;;;15.67;90.86
16255;BME280;8235;52.198;9.904;2022-09-09T05:58:53;100175.28;;;15.70;90.78
16255;BME280;8235;52.198;9.904;2022-09-09T06:01:21;100176.84;;;15.73;90.74
16255;BME280;8235;52.198;9.904;2022-09-09T06:03:49;100177.41;;;15.76;90.38
16255;BME280;8235;52.198;9.904;2022-09-09T06:06:18;100180.66;;;15.80;90.00
16255;BME280;8235;52.198;9.904;2022-09-09T06:08:47;100182.91;;;15.84;89.95
16255;BME280;8235;52.198;9.904;2022-09-09T06:11:17;100178.25;;;15.86;89.47
16255;BME280;8235;52.198;9.904;2022-09-09T06:13:44;100187.72;;;15.90;89.44
16255;BME280;8235;52.198;9.904;2022-09-09T06:16:12;100184.75;;;15.93;89.28
16255;BME280;8235;52.198;9.904;2022-09-09T06:18:39;100188.81;;;15.97;89.10
16255;BME280;8235;52.198;9.904;2022-09-09T06:21:09;100188.56;;;16.01;89.07
16255;BME280;8235;52.198;9.904;2022-09-09T06:23:39;100183.75;;;16.04;89.16
16255;BME280;8235;52.198;9.904;2022-09-09T06:26:10;100183.84;;;16.12;89.49
16255;BME280;8235;52.198;9.904;2022-09-09T06:28:36;100180.19;;;16.23;89.51
16255;BME280;8235;52.198;9.904;2022-09-09T06:31:05;100183.69;;;16.33;89.69
16255;BME280;8235;52.198;9.904;2022-09-09T06:33:33;100176.16;;;16.46;89.70
16255;BME280;8235;52.198;9.904;2022-09-09T06:36:01;100178.66;;;16.57;89.46
16255;BME280;8235;52.198;9.904;2022-09-09T06:38:28;100175.66;;;16.70;88.84
16255;BME280;8235;52.198;9.904;2022-09-09T06:40:56;100170.13;;;16.81;88.54
16255;BME280;8235;52.198;9.904;2022-09-09T06:43:25;100170.06;;;16.91;87.71
16255;BME280;8235;52.198;9.904;2022-09-09T06:45:55;100165.63;;;16.99;86.70
16255;BME280;8235;52.198;9.904;2022-09-09T06:48:22;100163.88;;;17.08;86.21
16255;BME280;8235;52.198;9.904;2022-09-09T06:50:51;100173.06;;;17.15;85.33
16255;BME280;8235;52.198;9.904;2022-09-09T06:53:18;100167.75;;;17.23;84.85
16255;BME280;8235;52.198;9.904;2022-09-09T06:55:45;100165.69;;;17.35;84.73
16255;BME280;8235;52.198;9.904;2022-09-09T06:58:13;100172.56;;;17.47;84.29
16255;BME280;8235;52.198;9.904;2022-09-09T07:00:41;100177.69;;;17.58;83.24
16255;BME280;8235;52.198;9.904;2022-09-09T07:03:07;100176.81;;;17.67;82.35
16255;BME280;8235;52.198;9.904;2022-09-09T07:05:33;100174.19;;;17.76;81.61
16255;BME280;8235;52.198;9.904;2022-09-09T07:08:00;100180.34;;;17.86;81.05
16255;BME280;8235;52.198;9.904;2022-09-09T07:10:27;100179.56;;;17.93;79.98
16255;BME280;8235;52.198;9.904;2022-09-09T07:12:53;100174.25;;;18.01;79.65
16255;BME280;8235;52.198;9.904;2022-09-09T07:15:20;100179.53;;;18.11;79.43
16255;BME280;8235;52.198;9.904;2022-09-09T07:17:49;100185.84;;;18.20;79.10
16255;BME280;8235;52.198;9.904;2022-09-09T07:20:15;100189.44;;;18.28;78.46
16255;BME280;8235;52.198;9.904;2022-09-09T07:22:42;100184.41;;;18.33;77.22
16255;BME280;8235;52.198;9.904;2022-09-09T07:25:08;100185.13;;;18.35;76.37
16255;BME280;8235;52.198;9.904;2022-09-09T07:27:35;100180.63;;;18.44;76.65
16255;BME280;8235;52.198;9.904;2022-09-09T07:30:02;100182.34;;;18.53;75.80
16255;BME280;8235;52.198;9.904;2022-09-09T07:32:29;100180.59;;;18.62;75.36
16255;BME280;8235;52.198;9.904;2022-09-09T07:34:57;100172.53;;;18.70;74.35
16255;BME280;8235;52.198;9.904;2022-09-09T07:37:24;100176.13;;;18.79;74.52
16255;BME280;8235;52.198;9.904;2022-09-09T07:39:50;100185.63;;;18.91;74.57
16255;BME280;8235;52.198;9.904;2022-09-09T07:42:17;100180.94;;;19.01;73.79
16255;BME280;8235;52.198;9.904;2022-09-09T07:44:44;100183.00;;;19.07;72.78
16255;BME280;8235;52.198;9.904;2022-09-09T07:47:11;100187.44;;;19.16;73.13
16255;BME280;8235;52.198;9.904;2022-09-09T07:49:37;100185.09;;;19.29;72.65
16255;BME280;8235;52.198;9.904;2022-09-09T07:52:05;100182.56;;;19.36;71.02
16255;BME280;8235;52.198;9.904;2022-09-09T07:54:31;100186.63;;;19.40;70.70
16255;BME280;8235;52.198;9.904;2022-09-09T07:56:58;100192.22;;;19.47;70.44
16255;BME280;8235;52.198;9.904;2022-09-09T07:59:24;100188.22;;;19.51;69.32
16255;BME280;8235;52.198;9.904;2022-09-09T08:01:51;100194.63;;;19.58;69.57
16255;BME280;8235;52.198;9.904;2022-09-09T08:04:20;100196.69;;;19.64;69.57
16255;BME280;8235;52.198;9.904;2022-09-09T08:06:48;100208.00;;;19.67;68.87
16255;BME280;8235;52.198;9.904;2022-09-09T08:09:17;100196.19;;;19.68;67.82
16255;BME280;8235;52.198;9.904;2022-09-09T08:11:44;100203.44;;;19.68;68.00
16255;BME280;8235;52.198;9.904;2022-09-09T08:14:11;100199.75;;;19.69;68.07
16255;BME280;8235;52.198;9.904;2022-09-09T08:16:40;100198.38;;;19.73;67.64
16255;BME280;8235;52.198;9.904;2022-09-09T08:19:07;100199.72;;;19.77;67.19
16255;BME280;8235;52.198;9.904;2022-09-09T08:21:36;100199.56;;;19.79;66.92
16255;BME280;8235;52.198;9.904;2022-09-09T08:24:04;100201.09;;;19.81;66.61
16255;BME280;8235;52.198;9.904;2022-09-09T08:26:33;100199.06;;;19.83;66.95
16255;BME280;8235;52.198;9.904;2022-09-09T08:29:01;100202.78;;;19.82;66.32
16255;BME280;8235;52.198;9.904;2022-09-09T08:31:31;100195.69;;;19.81;66.38
16255;BME280;8235;52.198;9.904;2022-09-09T08:33:59;100211.56;;;19.84;66.68
16255;BME280;8235;52.198;9.904;2022-09-09T08:36:28;100206.50;;;19.89;67.32
16255;BME280;8235;52.198;9.904;2022-09-09T08:38:57;100203.13;;;19.95;67.10
16255;BME280;8235;52.198;9.904;2022-09-09T08:44:30;100204.16;;;20.02;66.72
16255;BME280;8235;52.198;9.904;2022-09-09T08:47:03;100202.78;;;20.06;66.71
16255;BME280;8235;52.198;9.904;2022-09-09T08:49:47;100206.69;;;20.20;67.09
16255;BME280;8235;52.198;9.904;2022-09-09T08:52:22;100215.50;;;20.38;67.31
16255;BME280;8235;52.198;9.904;2022-09-09T08:54:50;100211.22;;;20.60;67.19
16255;BME280;8235;52.198;9.904;2022-09-09T08:57:20;100218.97;;;20.71;64.41
16255;BME280;8235;52.198;9.904;2022-09-09T08:59:54;100209.81;;;20.80;64.30
16255;BME280;8235;52.198;9.904;2022-09-09T09:02:25;100215.53;;;20.94;64.12
16255;BME280;8235;52.198;9.904;2022-09-09T09:05:00;100211.78;;;21.03;63.01
16255;BME280;8235;52.198;9.904;2022-09-09T09:07:42;100212.09;;;21.08;62.90
16255;BME280;8235;52.198;9.904;2022-09-09T09:10:17;100213.78;;;21.09;62.46
16255;BME280;8235;52.198;9.904;2022-09-09T09:12:45;100218.47;;;21.15;62.72
16255;BME280;8235;52.198;9.904;2022-09-09T09:15:18;100224.25;;;21.20;61.95
16255;BME280;8235;52.198;9.904;2022-09-09T09:17:46;100218.16;;;21.26;61.78
16255;BME280;8235;52.198;9.904;2022-09-09T09:20:15;100216.91;;;21.37;61.91
16255;BME280;8235;52.198;9.904;2022-09-09T09:22:48;100219.88;;;21.50;62.49
16255;BME280;8235;52.198;9.904;2022-09-09T09:25:17;100226.91;;;21.67;61.21
16255;BME280;8235;52.198;9.904;2022-09-09T09:27:51;100213.94;;;21.77;60.83
16255;BME280;8235;52.198;9.904;2022-09-09T09:30:22;100215.84;;;22.00;61.47
16255;BME280;8235;52.198;9.904;2022-09-09T09:32:53;100211.31;;;22.15;59.41
16255;BME280;8235;52.198;9.904;2022-09-09T09:35:21;100212.16;;;22.15;58.75
16255;BME280;8235;52.198;9.904;2022-09-09T09:37:48;100210.78;;;22.20;58.65
16255;BME280;8235;52.198;9.904;2022-09-09T09:40:16;100209.56;;;22.22;58.43
16255;BME280;8235;52.198;9.904;2022-09-09T09:42:52;100210.41;;;22.23;58.64
16255;BME280;8235;52.198;9.904;2022-09-09T09:45:27;100210.03;;;22.26;58.32
16255;BME280;8235;52.198;9.904;2022-09-09T09:47:59;100210.69;;;22.28;58.19
16255;BME280;8235;52.198;9.904;2022-09-09T09:50:27;100203.03;;;22.31;57.94
16255;BME280;8235;52.198;9.904;2022-09-09T09:52:55;100197.06;;;22.36;57.68
16255;BME280;8235;52.198;9.904;2022-09-09T09:55:23;100199.22;;;22.40;57.60
16255;BME280;8235;52.198;9.904;2022-09-09T09:57:51;100206.06;;;22.51;57.71
16255;BME280;8235;52.198;9.904;2022-09-09T10:00:19;100186.13;;;22.59;57.46
16255;BME280;8235;52.198;9.904;2022-09-09T10:02:48;100195.41;;;22.64;57.00
16255;BME280;8235;52.198;9.904;2022-09-09T10:05:19;100191.66;;;22.65;55.84
16255;BME280;8235;52.198;9.904;2022-09-09T10:07:47;100196.06;;;22.66;55.83
16255;BME280;8235;52.198;9.904;2022-09-09T10:10:34;100197.94;;;22.66;55.66
16255;BME280;8235;52.198;9.904;2022-09-09T10:13:08;100191.00;;;22.63;55.44
16255;BME280;8235;52.198;9.904;2022-09-09T10:15:44;100188.84;;;22.59;55.19
16255;BME280;8235;52.198;9.904;2022-09-09T10:18:25;100180.91;;;22.57;55.49
16255;BME280;8235;52.198;9.904;2022-09-09T10:21:03;100184.44;;;22.58;55.71
16255;BME280;8235;52.198;9.904;2022-09-09T10:23:45;100182.22;;;22.61;56.00
16255;BME280;8235;52.198;9.904;2022-09-09T10:26:28;100181.84;;;22.64;56.08
16255;BME280;8235;52.198;9.904;2022-09-09T10:29:15;100182.13;;;22.69;55.91
16255;BME280;8235;52.198;9.904;2022-09-09T10:31:54;100179.22;;;22.71;55.18
16255;BME280;8235;52.198;9.904;2022-09-09T10:34:43;100185.31;;;22.73;54.18
16255;BME280;8235;52.198;9.904;2022-09-09T10:37:21;100181.59;;;22.74;53.16
16255;BME280;8235;52.198;9.904;2022-09-09T10:39:58;100187.31;;;22.79;52.38
16255;BME280;8235;52.198;9.904;2022-09-09T10:42:30;100181.31;;;22.83;51.91
16255;BME280;8235;52.198;9.904;2022-09-09T10:45:10;100174.78;;;22.93;51.85
16255;BME280;8235;52.198;9.904;2022-09-09T10:47:50;100172.97;;;23.00;51.64
16255;BME280;8235;52.198;9.904;2022-09-09T10:50:43;100170.81;;;23.10;51.24
16255;BME280;8235;52.198;9.904;2022-09-09T10:53:22;100176.03;;;23.11;50.54
16255;BME280;8235;52.198;9.904;2022-09-09T10:55:57;100175.41;;;23.09;49.68
16255;BME280;8235;52.198;9.904;2022-09-09T10:58:30;100172.22;;;23.06;49.35
16255;BME280;8235;52.198;9.904;2022-09-09T11:01:08;100176.34;;;23.02;50.18
16255;BME280;8235;52.198;9.904;2022-09-09T11:03:39;100178.03;;;23.03;50.51
16255;BME280;8235;52.198;9.904;2022-09-09T11:06:12;100180.56;;;23.04;50.39
16255;BME280;8235;52.198;9.904;2022-09-09T11:08:39;100174.66;;;23.01;50.79
16255;BME280;8235;52.198;9.904;2022-09-09T11:11:09;100178.78;;;22.97;50.76
16255;BME280;8235;52.198;9.904;2022-09-09T11:13:43;100185.81;;;22.91;51.43
16255;BME280;8235;52.198;9.904;2022-09-09T11:16:20;100191.81;;;22.87;51.90
16255;BME280;8235;52.198;9.904;2022-09-09T11:18:49;100194.06;;;22.83;52.22
16255;BME280;8235;52.198;9.904;2022-09-09T11:21:21;100186.94;;;22.82;52.76
16255;BME280;8235;52.198;9.904;2022-09-09T11:23:54;100192.91;;;22.77;52.99
16255;BME280;8235;52.198;9.904;2022-09-09T11:26:29;100201.63;;;22.73;53.62
16255;BME280;8235;52.198;9.904;2022-09-09T11:29:09;100203.56;;;22.64;54.09
16255;BME280;8235;52.198;9.904;2022-09-09T11:31:44;100202.81;;;22.56;54.66
16255;BME280;8235;52.198;9.904;2022-09-09T11:34:31;100204.94;;;22.45;54.51
16255;BME280;8235;52.198;9.904;2022-09-09T11:37:11;100211.38;;;22.30;54.54
16255;BME280;8235;52.198;9.904;2022-09-09T11:40:04;100215.72;;;22.16;54.71
16255;BME280;8235;52.198;9.904;2022-09-09T11:42:35;100214.28;;;22.05;54.93
16255;BME280;8235;52.198;9.904;2022-09-09T11:45:09;100224.84;;;22.00;55.91
16255;BME280;8235;52.198;9.904;2022-09-09T11:47:38;100230.94;;;21.94;56.66
16255;BME280;8235;52.198;9.904;2022-09-09T11:50:28;100224.25;;;21.82;57.11
16255;BME280;8235;52.198;9.904;2022-09-09T11:56:08;100216.09;;;21.59;58.23
16255;BME280;8235;52.198;9.904;2022-09-09T11:58:43;100219.69;;;21.52;58.80
16255;BME280;8235;52.198;9.904;2022-09-09T12:01:34;100221.97;;;21.40;58.94
16255;BME280;8235;52.198;9.904;2022-09-09T12:04:10;100221.19;;;21.31;59.52
16255;BME280;8235;52.198;9.904;2022-09-09T12:06:43;100223.91;;;21.23;59.96
16255;BME280;8235;52.198;9.904;2022-09-09T12:09:18;100219.31;;;21.15;60.23
16255;BME280;8235;52.198;9.904;2022-09-09T12:11:46;100214.47;;;21.11;60.66
16255;BME280;8235;52.198;9.904;2022-09-09T12:14:20;100203.31;;;21.06;61.12
16255;BME280;8235;52.198;9.904;2022-09-09T12:16:48;100195.53;;;21.03;61.67
16255;BME280;8235;52.198;9.904;2022-09-09T12:19:19;100189.94;;;21.04;62.21
16255;BME280;8235;52.198;9.904;2022-09-09T12:21:53;100199.94;;;21.04;62.44
16255;BME280;8235;52.198;9.904;2022-09-09T12:24:27;100198.06;;;21.04;62.57
16255;BME280;8235;52.198;9.904;2022-09-09T12:27:01;100193.84;;;21.02;62.22
16255;BME280;8235;52.198;9.904;2022-09-09T12:29:38;100197.91;;;20.98;62.39
16255;BME280;8235;52.198;9.904;2022-09-09T12:32:10;100195.56;;;20.95;62.66
16255;BME280;8235;52.198;9.904;2022-09-09T12:34:41;100194.06;;;20.92;62.84
16255;BME280;8235;52.198;9.904;2022-09-09T12:37:15;100188.81;;;20.91;63.09
16255;BME280;8235;52.198;9.904;2022-09-09T12:39:49;100190.69;;;20.90;63.20
16255;BME280;8235;52.198;9.904;2022-09-09T12:42:19;100187.81;;;20.92;63.35
16255;BME280;8235;52.198;9.904;2022-09-09T12:44:54;100191.34;;;20.92;63.49
16255;BME280;8235;52.198;9.904;2022-09-09T12:47:22;100197.44;;;20.94;63.25
16255;BME280;8235;52.198;9.904;2022-09-09T12:49:50;100196.41;;;20.95;63.34
16255;BME280;8235;52.198;9.904;2022-09-09T12:52:20;100204.34;;;20.97;63.24
16255;BME280;8235;52.198;9.904;2022-09-09T12:54:49;100207.88;;;20.97;63.07
16255;BME280;8235;52.198;9.904;2022-09-09T12:57:19;100212.66;;;20.95;63.07
16255;BME280;8235;52.198;9.904;2022-09-09T12:59:48;100204.72;;;20.94;62.88
16255;BME280;8235;52.198;9.904;2022-09-09T13:02:22;100209.28;;;20.93;63.13
16255;BME280;8235;52.198;9.904;2022-09-09T13:04:49;100214.69;;;20.93;63.07
16255;BME280;8235;52.198;9.904;2022-09-09T13:07:17;100202.84;;;20.94;63.25
16255;BME280;8235;52.198;9.904;2022-09-09T13:09:44;100203.88;;;20.93;63.14
16255;BME280;8235;52.198;9.904;2022-09-09T13:12:16;100208.63;;;20.91;62.37
16255;BME280;8235;52.198;9.904;2022-09-09T13:14:45;100210.13;;;20.86;61.63
16255;BME280;8235;52.198;9.904;2022-09-09T13:17:19;100206.94;;;20.82;61.20
16255;BME280;8235;52.198;9.904;2022-09-09T13:19:46;100201.22;;;20.77;61.17
16255;BME280;8235;52.198;9.904;2022-09-09T13:22:21;100197.66;;;20.76;61.13
16255;BME280;8235;52.198;9.904;2022-09-09T13:24:58;100197.00;;;20.74;61.48